Terminal Aerodrome Forecast
Issued by NWS Grand Forks, ND

Home | Current Version | Previous Version | Text Only | Print | Product List | Glossary On
Versions: 1 2 3 4 5 6 7 8 9 10 11 12 13 14 15
000
FTUS43 KFGF 242320
TAFGFK
TAF
KGFK 242320Z 2500/2524 04003KT P6SM FEW060
     FM251500 12008KT P6SM VCSH OVC100
     FM251800 12012G18KT P6SM -TSRA BKN050CB
     FM252100 11011G18KT P6SM VCTS OVC050CB=

USA.gov is the U.S. government's official web portal to all federal, state and local government web resources and services.